Flight Track Log - Related Links

Times and Time Zones

All times are in EDT time to prevent confusion due to time zone crossing. See the VH-WPL flight status page for this flight to view local times or setup timezone preferences in your user account.

Time Position Orientation Groundspeed Altitude Reporting Facility
EDT Latitude Longitude Course Direction KTS MPH feet Rate Location/Type
Tue 03:57:31 AM -27.5604 152.9972 189° South 72 83 1,600  Level Aus ATC (RADAR)
Tue 03:58:11 AM -27.5776 152.9940 189° South 89 102 1,500 171 Descending Aus ATC (RADAR)
Tue 03:58:41 AM -27.5886 152.9985 160° South 84 97 1,800 684 Climbing Aus ATC (RADAR)
Tue 03:59:30 AM -27.6052 152.9966 186° South 72 83 2,400 692 Climbing Aus ATC (RADAR)
Tue 04:00:25 AM -27.6246 152.9971 179° South 77 89 3,000 600 Climbing Aus ATC (RADAR)
Tue 04:01:20 AM -27.6441 153.0000 172° South 78 90 3,500 632 Climbing Aus ATC (RADAR)
Tue 04:02:00 AM -27.6579 153.0014 175° South 74 85 4,000 667 Climbing Aus ATC (RADAR)
Tue 04:02:50 AM -27.6742 153.0022 177° South 70 81 4,500 635 Climbing Aus ATC (RADAR)
Tue 04:03:25 AM -27.6857 153.0013 184° South 71 82 4,900 695 Climbing Aus ATC (RADAR)
Tue 04:04:25 AM -27.7052 152.9997 184° South 69 79 5,600 400 Climbing Aus ATC (RADAR)
Tue 04:05:10 AM -27.7218 152.9978 186° South 81 93 5,600 57 Level Aus ATC (RADAR)
Tue 04:06:10 AM -27.7455 152.9896 197° South 92 106 5,700 50 Climbing Aus ATC (RADAR)
Tue 04:07:10 AM -27.7679 152.9783 204° Southwest 87 100 5,700  Level Aus ATC (RADAR)
Tue 04:07:45 AM -27.7813 152.9736 197° South 87 100 5,700  Level Aus ATC (RADAR)
Tue 04:08:35 AM -27.7999 152.9661 199° South 86 99 5,700 -67 Level Aus ATC (RADAR)
Tue 04:09:15 AM -27.8141 152.9603 200° South 81 93 5,600 -75 Descending Aus ATC (RADAR)
Tue 04:09:55 AM -27.8292 152.9543 199° South 86 99 5,600 64 Level Aus ATC (RADAR)
Tue 04:10:49 AM -27.8505 152.9498 190° South 82 94 5,700 -3 Climbing Aus ATC (RADAR)
Tue 04:14:09 AM -27.9669 152.9416 303° West 5,500 -4 Descending Aus ATC (Calculated)
Tue 04:16:00 AM -27.9666 152.9416 North  Level Estimated
Tue 04:17:00 AM -27.9665 152.9416 North  Level Estimated
Tue 04:18:00 AM -27.9663 152.9417 North  Level Estimated
Tue 04:19:00 AM -27.9662 152.9417 North  Level Estimated
Tue 04:19:17 AM -27.9142 152.8125 304° West 5,500  Level Aus ATC (Calculated)
Tue 04:21:00 AM -27.9140 152.8126 27° Northeast  Level Estimated
Tue 04:22:00 AM -27.9139 152.8127 27° Northeast  Level Estimated
Tue 04:23:00 AM -27.9137 152.8128 27° Northeast  Level Estimated
Tue 04:24:00 AM -27.9136 152.8128 27° Northeast  Level Estimated
Tue 04:25:00 AM -27.9134 152.8129 27° Northeast  Level Estimated
Tue 04:26:00 AM -27.9133 152.8130 27° Northeast  Level Estimated
Tue 04:27:00 AM -27.9132 152.8131 27° Northeast  Level Estimated
Tue 04:27:12 AM -27.8217 152.5868 309° West 5,500  Level Aus ATC (Calculated)
Tue 04:29:00 AM -27.8216 152.5871 56° Northeast  Level Estimated
Tue 04:30:00 AM -27.8215 152.5872 56° Northeast  Level Estimated
Tue 04:31:00 AM -27.8214 152.5873 56° Northeast  Level Estimated
Tue 04:32:00 AM -27.8213 152.5875 56° Northeast  Level Estimated
Tue 04:33:00 AM -27.8213 152.5876 56° Northeast  Level Estimated
Tue 04:34:00 AM -27.8212 152.5878 56° Northeast  Level Estimated
Tue 04:35:00 AM -27.8211 152.5879 56° Northeast  Level Estimated
Tue 04:36:00 AM -27.8210 152.5880 56° Northeast  Level Estimated
Tue 04:37:00 AM -27.8209 152.5882 56° Northeast  Level Estimated
Tue 04:38:00 AM -27.8209 152.5883 56° Northeast  Level Estimated
Tue 04:39:00 AM -27.8208 152.5885 56° Northeast  Level Estimated
Tue 04:40:00 AM -27.8207 152.5886 56° Northeast  Level Estimated
Tue 04:41:00 AM -27.8206 152.5887 56° Northeast  Level Estimated
Tue 04:42:00 AM -27.8205 152.5889 56° Northeast  Level Estimated
Tue 04:43:00 AM -27.8204 152.5890 56° Northeast  Level Estimated
Tue 04:44:00 AM -27.8204 152.5892 56° Northeast  Level Estimated
Tue 04:45:00 AM -27.8203 152.5893 56° Northeast  Level Estimated
Tue 04:46:00 AM -27.8202 152.5894 56° Northeast  Level Estimated
Tue 04:47:00 AM -27.8201 152.5896 56° Northeast  Level Estimated
Tue 04:47:11 AM -27.6123 152.0804 58° Northeast 5,500  Level Aus ATC (Calculated)
Tue 04:49:00 AM -27.6123 152.0807 87° East  Level Estimated
Tue 04:50:00 AM -27.6123 152.0809 87° East  Level Estimated
Tue 04:51:00 AM -27.6123 152.0810 87° East  Level Estimated
Tue 04:52:00 AM -27.6123 152.0812 87° East  Level Estimated
Tue 04:52:18 AM -27.5421 151.9120 90° East 5,500  Level Aus ATC (Calculated)
Tue 04:53:06 AM -27.5421 151.9120 90° East 6,500 -4 Climbing Aus ATC (Calculated)
Tue 04:55:00 AM -27.5421 151.9123 92° East  Level Estimated
Tue 04:56:00 AM -27.5421 151.9125 92° East  Level Estimated
Tue 04:57:00 AM -27.5421 151.9127 92° East  Level Estimated
Tue 04:58:00 AM -27.5421 151.9128 92° East  Level Estimated
Tue 04:59:00 AM -27.5422 151.9130 92° East  Level Estimated
Tue 05:00:00 AM -27.5422 151.9132 92° East  Level Estimated
Tue 05:01:00 AM -27.5422 151.9133 92° East  Level Estimated
Tue 05:02:00 AM -27.5422 151.9135 92° East  Level Estimated
Tue 05:03:00 AM -27.5422 151.9137 92° East  Level Estimated
Tue 05:04:00 AM -27.5422 151.9139 92° East  Level Estimated
Tue 05:05:00 AM -27.5422 151.9140 92° East  Level Estimated
Tue 05:06:00 AM -27.5422 151.9142 92° East  Level Estimated
Tue 05:07:00 AM -27.5422 151.9144 92° East  Level Estimated
Tue 05:08:00 AM -27.5422 151.9145 92° East  Level Estimated
Tue 05:08:59 AM -27.5924 152.3138 296° West 6,500  Level Aus ATC (Calculated)
Tue 05:09:00 AM -27.5422 151.9147 92° East  Level Estimated
Tue 05:10:00 AM -27.5924 152.3140 88° East  Level Estimated
Tue 05:11:00 AM -27.5924 152.3142 88° East  Level Estimated
Tue 05:12:00 AM -27.5924 152.3143 88° East  Level Estimated
Tue 05:13:00 AM -27.5923 152.3145 88° East  Level Estimated
Tue 05:14:00 AM -27.5923 152.3147 88° East  Level Estimated
Tue 05:15:00 AM -27.5923 152.3148 88° East  Level Estimated
Tue 05:16:00 AM -27.5923 152.3150 88° East  Level Estimated
Tue 05:17:00 AM -27.5923 152.3152 88° East  Level Estimated
Tue 05:18:00 AM -27.5923 152.3154 88° East  Level Estimated
Tue 05:18:23 AM -27.6293 152.6154 283° West 6,500  Level Aus ATC (Calculated)
Tue 05:19:18 AM -27.5439 152.2023 88° East 108 124 5,400 -600 Descending Aus ATC (RADAR)
Tue 05:20:03 AM -27.5524 152.2261 112° Southeast 111 128 5,500 150 Climbing Aus ATC (RADAR)
Tue 05:20:38 AM -27.5578 152.2447 108° East 108 124 5,600 75 Climbing Aus ATC (RADAR)
Tue 05:21:23 AM -27.5681 152.2707 114° Southeast 124 143 5,600  Level Aus ATC (RADAR)
Tue 05:21:53 AM -27.5745 152.2878 113° Southeast 119 137 5,600 -92 Level Aus ATC (RADAR)
Tue 05:22:28 AM -27.5808 152.3085 109° East 118 136 5,500 -80 Descending Aus ATC (RADAR)
Tue 05:23:08 AM -27.5859 152.3333 103° East 121 139 5,500  Level Aus ATC (RADAR)
Tue 05:23:43 AM -27.5877 152.3564 95° East 127 146 5,500 -86 Level Aus ATC (RADAR)
Tue 05:24:18 AM -27.5893 152.3801 94° East 129 148 5,400 87 Descending Aus ATC (RADAR)
Tue 05:24:52 AM -27.5910 152.4032 95° East 127 146 5,600 174 Climbing Aus ATC (RADAR)
Tue 05:25:27 AM -27.5921 152.4269 93° East 128 147 5,600  Level Aus ATC (RADAR)
Tue 05:26:22 AM -27.5930 152.4630 92° East 125 144 5,600 -52 Level Aus ATC (RADAR)
Tue 05:27:22 AM -27.5943 152.5035 92° East 128 147 5,500 -171 Descending Aus ATC (RADAR)
Tue 05:28:07 AM -27.5953 152.5332 92° East 127 146 5,300 -375 Descending Aus ATC (RADAR)
Tue 05:28:42 AM -27.5969 152.5546 95° East 116 133 5,000 -343 Descending Aus ATC (RADAR)
Tue 05:29:17 AM -27.5996 152.5740 99° East 109 125 4,900 -320 Descending Aus ATC (RADAR)
Tue 05:29:57 AM -27.6032 152.5974 100° East 115 132 4,600 -480 Descending Aus ATC (RADAR)
Tue 05:30:32 AM -27.6059 152.6182 98° East 114 131 4,300 -286 Descending Aus ATC (RADAR)
Tue 05:31:42 AM -27.6138 152.6598 102° East 119 137 4,100 -150 Descending Aus ATC (RADAR)
Tue 05:32:32 AM -27.6205 152.6906 104° East 119 137 4,000 -60 Descending Aus ATC (RADAR)
Tue 05:33:22 AM -27.6253 152.7208 100° East 113 130 4,000  Level Aus ATC (RADAR)
Tue 05:33:57 AM -27.6192 152.7431 73° East 121 139 4,000  Level Aus ATC (RADAR)
Tue 05:34:41 AM -27.6115 152.7732 74° East 131 151 4,000 -58 Level Aus ATC (RADAR)
Tue 05:35:41 AM -27.6004 152.8144 73° East 138 159 3,900  Descending Aus ATC (RADAR)
Tue 05:36:36 AM -27.5903 152.8516 73° East 134 154 4,000  Climbing Aus ATC (RADAR)
Tue 05:37:06 AM -27.5848 152.8712 72° East 131 151 3,900 -277 Descending Aus ATC (RADAR)
Tue 05:37:41 AM -27.5771 152.8929 68° East 127 146 3,700 -300 Descending Aus ATC (RADAR)
Tue 05:38:26 AM -27.5718 152.9210 78° East 119 137 3,500 -450 Descending Aus ATC (RADAR)
Tue 05:39:01 AM -27.5712 152.9441 88° East 124 143 3,100 -675 Descending Aus ATC (RADAR)
Tue 05:39:46 AM -27.5735 152.9738 95° East 127 146 2,600 -743 Descending Aus ATC (RADAR)
Tue 05:40:46 AM -27.5819 153.0126 104° East 124 143 1,800 -571 Descending Aus ATC (RADAR)
Tue 05:41:31 AM -27.5660 153.0281 41° Northeast 123 142 1,600 -400 Descending Aus ATC (RADAR)
Tue 05:42:31 AM -27.5585 153.0012 287° West 84 97 1,100 -500 Descending Aus ATC (RADAR)

Login

Don't have an account? Register now (free) for customized features, flight alerts, and more!